sensor_id;sensor_type;location;lat;lon;timestamp;temperature;humidity
53978;DHT22;39886;47.984;-1.586;2023-04-06T08:05:21;21.30;57.90
53978;DHT22;39886;47.984;-1.586;2023-04-06T08:07:47;21.30;58.00
53978;DHT22;39886;47.984;-1.586;2023-04-06T08:10:13;21.30;58.50
53978;DHT22;39886;47.984;-1.586;2023-04-06T08:12:39;21.30;57.90
53978;DHT22;39886;47.984;-1.586;2023-04-06T08:15:05;21.20;57.90
53978;DHT22;39886;47.984;-1.586;2023-04-06T08:17:34;21.20;58.10
53978;DHT22;39886;47.984;-1.586;2023-04-06T08:20:00;21.20;58.20
53978;DHT22;39886;47.984;-1.586;2023-04-06T08:22:27;21.20;58.30
53978;DHT22;39886;47.984;-1.586;2023-04-06T08:24:55;21.20;58.20
53978;DHT22;39886;47.984;-1.586;2023-04-06T08:27:21;21.20;58.30
53978;DHT22;39886;47.984;-1.586;2023-04-06T08:29:49;21.20;58.60
53978;DHT22;39886;47.984;-1.586;2023-04-06T08:32:15;21.20;58.70
53978;DHT22;39886;47.984;-1.586;2023-04-06T08:34:40;21.20;58.60
53978;DHT22;39886;47.984;-1.586;2023-04-06T08:37:06;21.20;58.70
53978;DHT22;39886;47.984;-1.586;2023-04-06T08:39:32;21.20;58.60
53978;DHT22;39886;47.984;-1.586;2023-04-06T08:41:59;21.20;58.70
53978;DHT22;39886;47.984;-1.586;2023-04-06T08:44:28;21.20;58.70
53978;DHT22;39886;47.984;-1.586;2023-04-06T08:46:54;21.20;58.80
53978;DHT22;39886;47.984;-1.586;2023-04-06T08:49:20;21.20;58.90
53978;DHT22;39886;47.984;-1.586;2023-04-06T08:51:47;21.20;59.00
53978;DHT22;39886;47.984;-1.586;2023-04-06T08:54:13;21.10;58.90
53978;DHT22;39886;47.984;-1.586;2023-04-06T08:56:39;21.20;59.10
53978;DHT22;39886;47.984;-1.586;2023-04-06T08:59:06;21.10;59.10
53978;DHT22;39886;47.984;-1.586;2023-04-06T09:01:33;21.10;59.20
53978;DHT22;39886;47.984;-1.586;2023-04-06T09:04:03;21.10;59.40
53978;DHT22;39886;47.984;-1.586;2023-04-06T09:06:34;21.10;59.40
53978;DHT22;39886;47.984;-1.586;2023-04-06T09:09:00;21.20;59.30
53978;DHT22;39886;47.984;-1.586;2023-04-06T09:11:25;21.20;59.20
53978;DHT22;39886;47.984;-1.586;2023-04-06T09:13:53;21.20;59.30
53978;DHT22;39886;47.984;-1.586;2023-04-06T09:16:20;21.20;59.40
53978;DHT22;39886;47.984;-1.586;2023-04-06T09:18:46;21.20;59.50
53978;DHT22;39886;47.984;-1.586;2023-04-06T09:21:15;21.20;59.50
53978;DHT22;39886;47.984;-1.586;2023-04-06T09:23:41;21.20;60.00
53978;DHT22;39886;47.984;-1.586;2023-04-06T09:26:16;21.30;59.60
53978;DHT22;39886;47.984;-1.586;2023-04-06T09:28:49;21.30;59.60
53978;DHT22;39886;47.984;-1.586;2023-04-06T09:31:16;21.20;59.60
53978;DHT22;39886;47.984;-1.586;2023-04-06T09:33:44;21.20;59.80
53978;DHT22;39886;47.984;-1.586;2023-04-06T09:36:10;21.20;60.40
53978;DHT22;39886;47.984;-1.586;2023-04-06T09:38:54;21.20;59.70
53978;DHT22;39886;47.984;-1.586;2023-04-06T09:41:25;21.20;60.00
53978;DHT22;39886;47.984;-1.586;2023-04-06T09:43:52;21.20;60.00
53978;DHT22;39886;47.984;-1.586;2023-04-06T09:46:26;21.20;60.10
53978;DHT22;39886;47.984;-1.586;2023-04-06T09:48:53;21.10;60.20
53978;DHT22;39886;47.984;-1.586;2023-04-06T09:51:19;21.10;60.20
53978;DHT22;39886;47.984;-1.586;2023-04-06T09:53:51;21.10;60.30
53978;DHT22;39886;47.984;-1.586;2023-04-06T09:56:22;21.10;60.30
53978;DHT22;39886;47.984;-1.586;2023-04-06T09:58:49;21.10;61.20
53978;DHT22;39886;47.984;-1.586;2023-04-06T10:01:20;21.20;60.50
53978;DHT22;39886;47.984;-1.586;2023-04-06T10:04:07;21.20;60.50
53978;DHT22;39886;47.984;-1.586;2023-04-06T10:06:34;21.10;60.50
53978;DHT22;39886;47.984;-1.586;2023-04-06T10:09:03;21.10;60.50
53978;DHT22;39886;47.984;-1.586;2023-04-06T10:11:30;21.20;60.70
53978;DHT22;39886;47.984;-1.586;2023-04-06T10:13:56;21.20;60.60
53978;DHT22;39886;47.984;-1.586;2023-04-06T10:16:22;21.20;60.70
53978;DHT22;39886;47.984;-1.586;2023-04-06T10:19:04;21.10;60.70
53978;DHT22;39886;47.984;-1.586;2023-04-06T10:21:32;21.10;60.80
53978;DHT22;39886;47.984;-1.586;2023-04-06T10:24:00;21.20;60.90
53978;DHT22;39886;47.984;-1.586;2023-04-06T10:26:26;21.10;60.70
53978;DHT22;39886;47.984;-1.586;2023-04-06T10:28:52;21.10;60.90
53978;DHT22;39886;47.984;-1.586;2023-04-06T10:31:26;21.10;60.90
53978;DHT22;39886;47.984;-1.586;2023-04-06T10:33:56;21.10;60.90
53978;DHT22;39886;47.984;-1.586;2023-04-06T10:36:27;21.10;60.90
53978;DHT22;39886;47.984;-1.586;2023-04-06T10:38:57;21.10;61.10
53978;DHT22;39886;47.984;-1.586;2023-04-06T10:41:24;21.10;61.20
53978;DHT22;39886;47.984;-1.586;2023-04-06T10:43:57;21.00;61.00
53978;DHT22;39886;47.984;-1.586;2023-04-06T10:46:30;21.00;61.00
53978;DHT22;39886;47.984;-1.586;2023-04-06T10:48:56;21.00;61.20
53978;DHT22;39886;47.984;-1.586;2023-04-06T10:51:27;21.00;61.30
53978;DHT22;39886;47.984;-1.586;2023-04-06T10:53:54;21.00;61.10
53978;DHT22;39886;47.984;-1.586;2023-04-06T10:56:23;21.00;61.20
53978;DHT22;39886;47.984;-1.586;2023-04-06T10:58:52;21.00;61.20
53978;DHT22;39886;47.984;-1.586;2023-04-06T11:01:20;21.00;61.20
53978;DHT22;39886;47.984;-1.586;2023-04-06T11:03:47;21.00;61.20
53978;DHT22;39886;47.984;-1.586;2023-04-06T11:06:28;21.00;61.20
53978;DHT22;39886;47.984;-1.586;2023-04-06T11:08:55;20.90;61.20
53978;DHT22;39886;47.984;-1.586;2023-04-06T11:11:23;20.90;61.30
53978;DHT22;39886;47.984;-1.586;2023-04-06T11:13:56;20.90;61.40
53978;DHT22;39886;47.984;-1.586;2023-04-06T11:16:27;20.80;61.60
53978;DHT22;39886;47.984;-1.586;2023-04-06T11:19:00;20.80;61.30
53978;DHT22;39886;47.984;-1.586;2023-04-06T11:21:37;20.80;61.30
53978;DHT22;39886;47.984;-1.586;2023-04-06T11:24:18;20.80;61.30
53978;DHT22;39886;47.984;-1.586;2023-04-06T11:26:49;20.90;61.30
53978;DHT22;39886;47.984;-1.586;2023-04-06T11:29:23;20.90;61.30
53978;DHT22;39886;47.984;-1.586;2023-04-06T11:31:57;20.90;61.10
53978;DHT22;39886;47.984;-1.586;2023-04-06T11:34:23;21.00;61.00
53978;DHT22;39886;47.984;-1.586;2023-04-06T11:36:58;21.00;60.90
53978;DHT22;39886;47.984;-1.586;2023-04-06T11:39:25;21.00;60.90
53978;DHT22;39886;47.984;-1.586;2023-04-06T11:41:53;21.00;61.00
53978;DHT22;39886;47.984;-1.586;2023-04-06T11:44:35;21.00;61.00
53978;DHT22;39886;47.984;-1.586;2023-04-06T11:47:07;21.00;61.40
53978;DHT22;39886;47.984;-1.586;2023-04-06T11:49:37;21.10;61.20
53978;DHT22;39886;47.984;-1.586;2023-04-06T11:52:16;21.20;61.40
53978;DHT22;39886;47.984;-1.586;2023-04-06T11:54:42;21.10;61.20
53978;DHT22;39886;47.984;-1.586;2023-04-06T11:57:08;21.10;61.20
53978;DHT22;39886;47.984;-1.586;2023-04-06T11:59:35;21.20;61.40
53978;DHT22;39886;47.984;-1.586;2023-04-06T12:02:04;21.20;61.60
53978;DHT22;39886;47.984;-1.586;2023-04-06T12:04:30;21.20;61.50
53978;DHT22;39886;47.984;-1.586;2023-04-06T12:06:57;21.20;61.40
53978;DHT22;39886;47.984;-1.586;2023-04-06T12:09:23;21.20;61.50
53978;DHT22;39886;47.984;-1.586;2023-04-06T12:11:49;21.20;61.60
53978;DHT22;39886;47.984;-1.586;2023-04-06T12:14:15;21.10;61.70
53978;DHT22;39886;47.984;-1.586;2023-04-06T12:16:41;21.10;61.80
53978;DHT22;39886;47.984;-1.586;2023-04-06T12:19:07;21.10;61.80
53978;DHT22;39886;47.984;-1.586;2023-04-06T12:21:34;21.10;61.90
53978;DHT22;39886;47.984;-1.586;2023-04-06T12:24:03;21.00;62.00
53978;DHT22;39886;47.984;-1.586;2023-04-06T12:26:30;20.90;61.50
53978;DHT22;39886;47.984;-1.586;2023-04-06T12:28:56;20.90;61.40
53978;DHT22;39886;47.984;-1.586;2023-04-06T12:31:22;20.80;60.80
53978;DHT22;39886;47.984;-1.586;2023-04-06T12:33:51;20.80;60.80
53978;DHT22;39886;47.984;-1.586;2023-04-06T12:36:19;20.80;60.70
53978;DHT22;39886;47.984;-1.586;2023-04-06T12:38:47;20.70;60.40
53978;DHT22;39886;47.984;-1.586;2023-04-06T12:41:14;20.70;60.50
53978;DHT22;39886;47.984;-1.586;2023-04-06T12:43:41;20.70;60.60
53978;DHT22;39886;47.984;-1.586;2023-04-06T12:46:07;20.70;60.70
53978;DHT22;39886;47.984;-1.586;2023-04-06T12:48:33;20.70;60.70
53978;DHT22;39886;47.984;-1.586;2023-04-06T12:51:00;20.70;60.70
53978;DHT22;39886;47.984;-1.586;2023-04-06T12:53:27;20.70;60.80
53978;DHT22;39886;47.984;-1.586;2023-04-06T12:55:54;20.70;60.90
53978;DHT22;39886;47.984;-1.586;2023-04-06T12:58:20;20.70;60.90
53978;DHT22;39886;47.984;-1.586;2023-04-06T13:00:48;20.70;60.90
53978;DHT22;39886;47.984;-1.586;2023-04-06T13:03:13;20.80;61.20
53978;DHT22;39886;47.984;-1.586;2023-04-06T13:05:50;20.80;60.80
53978;DHT22;39886;47.984;-1.586;2023-04-06T13:08:17;20.90;60.90
53978;DHT22;39886;47.984;-1.586;2023-04-06T13:10:52;20.90;60.90
53978;DHT22;39886;47.984;-1.586;2023-04-06T13:13:25;21.00;61.40
53978;DHT22;39886;47.984;-1.586;2023-04-06T13:15:52;21.00;61.00
53978;DHT22;39886;47.984;-1.586;2023-04-06T13:18:18;21.10;61.30
53978;DHT22;39886;47.984;-1.586;2023-04-06T13:20:44;21.10;61.30
53978;DHT22;39886;47.984;-1.586;2023-04-06T13:23:09;21.20;61.40
53978;DHT22;39886;47.984;-1.586;2023-04-06T13:25:36;21.20;61.50
53978;DHT22;39886;47.984;-1.586;2023-04-06T13:28:02;21.30;61.20
53978;DHT22;39886;47.984;-1.586;2023-04-06T13:30:28;21.30;61.40
53978;DHT22;39886;47.984;-1.586;2023-04-06T13:32:54;21.30;62.10
53978;DHT22;39886;47.984;-1.586;2023-04-06T13:35:20;21.30;61.50
53978;DHT22;39886;47.984;-1.586;2023-04-06T13:37:45;21.30;61.20
53978;DHT22;39886;47.984;-1.586;2023-04-06T13:40:11;21.30;61.40
53978;DHT22;39886;47.984;-1.586;2023-04-06T13:42:37;21.30;61.50
53978;DHT22;39886;47.984;-1.586;2023-04-06T13:45:07;21.30;61.30
53978;DHT22;39886;47.984;-1.586;2023-04-06T13:47:33;21.30;61.50
53978;DHT22;39886;47.984;-1.586;2023-04-06T13:49:59;21.40;61.80
53978;DHT22;39886;47.984;-1.586;2023-04-06T13:52:25;21.40;61.70
53978;DHT22;39886;47.984;-1.586;2023-04-06T13:54:50;21.40;61.30
53978;DHT22;39886;47.984;-1.586;2023-04-06T13:57:16;21.40;61.50
53978;DHT22;39886;47.984;-1.586;2023-04-06T13:59:42;21.40;61.70
53978;DHT22;39886;47.984;-1.586;2023-04-06T14:02:09;21.40;61.80
53978;DHT22;39886;47.984;-1.586;2023-04-06T14:04:36;21.30;61.50
53978;DHT22;39886;47.984;-1.586;2023-04-06T14:07:02;21.40;61.90
53978;DHT22;39886;47.984;-1.586;2023-04-06T14:09:29;21.40;61.90
53978;DHT22;39886;47.984;-1.586;2023-04-06T14:11:55;21.40;62.00
53978;DHT22;39886;47.984;-1.586;2023-04-06T14:14:22;21.30;61.80
53978;DHT22;39886;47.984;-1.586;2023-04-06T14:16:48;21.30;62.00
53978;DHT22;39886;47.984;-1.586;2023-04-06T14:19:16;21.40;62.20
53978;DHT22;39886;47.984;-1.586;2023-04-06T14:21:46;21.40;62.10
53978;DHT22;39886;47.984;-1.586;2023-04-06T14:24:12;21.30;62.10
53978;DHT22;39886;47.984;-1.586;2023-04-06T14:26:39;21.30;62.30
53978;DHT22;39886;47.984;-1.586;2023-04-06T14:29:07;21.30;62.20
53978;DHT22;39886;47.984;-1.586;2023-04-06T14:31:33;21.30;62.40
53978;DHT22;39886;47.984;-1.586;2023-04-06T14:34:01;21.30;63.00
53978;DHT22;39886;47.984;-1.586;2023-04-06T14:36:27;21.40;62.70
53978;DHT22;39886;47.984;-1.586;2023-04-06T14:38:56;21.40;62.50
53978;DHT22;39886;47.984;-1.586;2023-04-06T14:41:24;21.40;62.40
53978;DHT22;39886;47.984;-1.586;2023-04-06T14:43:50;21.40;62.20
53978;DHT22;39886;47.984;-1.586;2023-04-06T14:46:18;21.50;62.20
53978;DHT22;39886;47.984;-1.586;2023-04-06T14:48:44;21.40;62.20
53978;DHT22;39886;47.984;-1.586;2023-04-06T14:51:11;21.40;62.40
53978;DHT22;39886;47.984;-1.586;2023-04-06T14:53:37;21.50;62.40
53978;DHT22;39886;47.984;-1.586;2023-04-06T14:56:03;21.50;62.10
53978;DHT22;39886;47.984;-1.586;2023-04-06T14:58:29;21.50;62.10
53978;DHT22;39886;47.984;-1.586;2023-04-06T15:00:57;21.50;62.20
53978;DHT22;39886;47.984;-1.586;2023-04-06T15:03:26;21.50;62.50
53978;DHT22;39886;47.984;-1.586;2023-04-06T15:05:53;21.40;62.60
53978;DHT22;39886;47.984;-1.586;2023-04-06T15:08:19;21.40;62.80
53978;DHT22;39886;47.984;-1.586;2023-04-06T15:10:48;21.40;62.80
53978;DHT22;39886;47.984;-1.586;2023-04-06T15:13:14;21.40;62.80
53978;DHT22;39886;47.984;-1.586;2023-04-06T15:15:43;21.40;62.90
53978;DHT22;39886;47.984;-1.586;2023-04-06T15:18:10;21.40;63.50
53978;DHT22;39886;47.984;-1.586;2023-04-06T15:20:36;21.40;62.80
53978;DHT22;39886;47.984;-1.586;2023-04-06T15:23:03;21.50;62.80
53978;DHT22;39886;47.984;-1.586;2023-04-06T15:25:30;21.50;62.90
53978;DHT22;39886;47.984;-1.586;2023-04-06T15:27:56;21.60;63.00
53978;DHT22;39886;47.984;-1.586;2023-04-06T15:30:22;21.50;62.90
53978;DHT22;39886;47.984;-1.586;2023-04-06T15:32:59;21.60;62.90
53978;DHT22;39886;47.984;-1.586;2023-04-06T15:35:29;21.60;62.50
53978;DHT22;39886;47.984;-1.586;2023-04-06T15:37:58;21.60;63.10
53978;DHT22;39886;47.984;-1.586;2023-04-06T15:40:24;21.60;62.20
53978;DHT22;39886;47.984;-1.586;2023-04-06T15:42:50;21.60;62.40
53978;DHT22;39886;47.984;-1.586;2023-04-06T15:45:16;21.70;62.00
53978;DHT22;39886;47.984;-1.586;2023-04-06T15:47:44;21.70;62.30
53978;DHT22;39886;47.984;-1.586;2023-04-06T15:50:11;21.70;61.90
53978;DHT22;39886;47.984;-1.586;2023-04-06T15:52:38;21.70;62.20
53978;DHT22;39886;47.984;-1.586;2023-04-06T15:55:05;21.70;61.80
53978;DHT22;39886;47.984;-1.586;2023-04-06T15:57:31;21.60;61.70
53978;DHT22;39886;47.984;-1.586;2023-04-06T15:59:57;21.60;61.60
53978;DHT22;39886;47.984;-1.586;2023-04-06T16:02:23;21.60;61.70
53978;DHT22;39886;47.984;-1.586;2023-04-06T16:04:56;21.60;61.50
53978;DHT22;39886;47.984;-1.586;2023-04-06T16:07:22;21.60;61.60
53978;DHT22;39886;47.984;-1.586;2023-04-06T16:09:49;21.60;61.60
53978;DHT22;39886;47.984;-1.586;2023-04-06T16:12:14;21.60;61.70
53978;DHT22;39886;47.984;-1.586;2023-04-06T16:14:40;21.60;61.70
53978;DHT22;39886;47.984;-1.586;2023-04-06T16:17:06;21.50;61.70
53978;DHT22;39886;47.984;-1.586;2023-04-06T16:19:32;21.60;61.90
53978;DHT22;39886;47.984;-1.586;2023-04-06T16:21:58;21.50;61.90
53978;DHT22;39886;47.984;-1.586;2023-04-06T16:24:23;21.50;62.00
53978;DHT22;39886;47.984;-1.586;2023-04-06T16:26:49;21.40;62.00
53978;DHT22;39886;47.984;-1.586;2023-04-06T16:29:15;21.40;62.00
53978;DHT22;39886;47.984;-1.586;2023-04-06T16:31:41;21.40;62.10
53978;DHT22;39886;47.984;-1.586;2023-04-06T16:34:12;21.40;62.10
53978;DHT22;39886;47.984;-1.586;2023-04-06T16:36:38;21.40;62.20
53978;DHT22;39886;47.984;-1.586;2023-04-06T16:39:05;21.30;62.30
53978;DHT22;39886;47.984;-1.586;2023-04-06T16:41:31;21.30;62.20
53978;DHT22;39886;47.984;-1.586;2023-04-06T16:43:57;21.30;62.10
53978;DHT22;39886;47.984;-1.586;2023-04-06T16:46:32;21.30;62.20
53978;DHT22;39886;47.984;-1.586;2023-04-06T16:48:59;21.30;62.20
53978;DHT22;39886;47.984;-1.586;2023-04-06T16:51:25;21.30;62.20
53978;DHT22;39886;47.984;-1.586;2023-04-06T16:53:54;21.30;62.30
53978;DHT22;39886;47.984;-1.586;2023-04-06T16:56:20;21.30;63.00
53978;DHT22;39886;47.984;-1.586;2023-04-06T16:58:46;21.30;62.30
53978;DHT22;39886;47.984;-1.586;2023-04-06T17:01:23;21.30;62.20
53978;DHT22;39886;47.984;-1.586;2023-04-06T17:03:49;21.30;62.30
53978;DHT22;39886;47.984;-1.586;2023-04-06T17:06:15;21.20;62.50
53978;DHT22;39886;47.984;-1.586;2023-04-06T17:08:42;21.20;62.50
53978;DHT22;39886;47.984;-1.586;2023-04-06T17:11:08;21.10;62.50
53978;DHT22;39886;47.984;-1.586;2023-04-06T17:13:34;21.10;62.70
53978;DHT22;39886;47.984;-1.586;2023-04-06T17:16:00;21.10;62.60
53978;DHT22;39886;47.984;-1.586;2023-04-06T17:18:26;21.00;62.70
53978;DHT22;39886;47.984;-1.586;2023-04-06T17:20:55;21.00;62.70
53978;DHT22;39886;47.984;-1.586;2023-04-06T17:23:21;21.00;62.70
53978;DHT22;39886;47.984;-1.586;2023-04-06T17:25:48;21.00;62.70
53978;DHT22;39886;47.984;-1.586;2023-04-06T17:28:15;20.90;62.70
53978;DHT22;39886;47.984;-1.586;2023-04-06T17:30:40;20.90;62.70
53978;DHT22;39886;47.984;-1.586;2023-04-06T17:33:07;20.90;63.40
53978;DHT22;39886;47.984;-1.586;2023-04-06T17:35:34;20.90;62.70
53978;DHT22;39886;47.984;-1.586;2023-04-06T17:38:00;20.90;62.70
53978;DHT22;39886;47.984;-1.586;2023-04-06T17:40:26;20.90;62.70
53978;DHT22;39886;47.984;-1.586;2023-04-06T17:42:52;20.80;62.70
53978;DHT22;39886;47.984;-1.586;2023-04-06T17:45:18;20.80;62.70
53978;DHT22;39886;47.984;-1.586;2023-04-06T17:47:43;20.80;62.70
53978;DHT22;39886;47.984;-1.586;2023-04-06T17:50:10;20.80;62.70
53978;DHT22;39886;47.984;-1.586;2023-04-06T17:52:35;20.70;62.70
53978;DHT22;39886;47.984;-1.586;2023-04-06T17:55:02;20.80;62.80
53978;DHT22;39886;47.984;-1.586;2023-04-06T17:57:28;20.70;62.70
53978;DHT22;39886;47.984;-1.586;2023-04-06T17:59:53;20.70;62.70
53978;DHT22;39886;47.984;-1.586;2023-04-06T18:02:20;20.70;62.80
53978;DHT22;39886;47.984;-1.586;2023-04-06T18:04:46;20.70;62.80
53978;DHT22;39886;47.984;-1.586;2023-04-06T18:07:11;20.60;62.80
53978;DHT22;39886;47.984;-1.586;2023-04-06T18:09:38;20.60;62.80
53978;DHT22;39886;47.984;-1.586;2023-04-06T18:12:04;20.60;62.90
53978;DHT22;39886;47.984;-1.586;2023-04-06T18:14:30;20.60;62.90
53978;DHT22;39886;47.984;-1.586;2023-04-06T18:16:56;20.50;62.90
53978;DHT22;39886;47.984;-1.586;2023-04-06T18:19:21;20.50;62.90
53978;DHT22;39886;47.984;-1.586;2023-04-06T18:21:47;20.50;63.00
53978;DHT22;39886;47.984;-1.586;2023-04-06T18:24:13;20.50;63.00
53978;DHT22;39886;47.984;-1.586;2023-04-06T18:26:38;20.40;63.00
53978;DHT22;39886;47.984;-1.586;2023-04-06T18:29:04;20.40;63.00
53978;DHT22;39886;47.984;-1.586;2023-04-06T18:31:30;20.40;63.10
53978;DHT22;39886;47.984;-1.586;2023-04-06T18:33:56;20.40;63.10
53978;DHT22;39886;47.984;-1.586;2023-04-06T18:36:22;20.30;63.10
53978;DHT22;39886;47.984;-1.586;2023-04-06T18:38:48;20.40;63.20
53978;DHT22;39886;47.984;-1.586;2023-04-06T18:41:15;20.30;63.10
53978;DHT22;39886;47.984;-1.586;2023-04-06T18:43:42;20.30;63.20
53978;DHT22;39886;47.984;-1.586;2023-04-06T18:46:15;20.30;63.20
53978;DHT22;39886;47.984;-1.586;2023-04-06T18:48:43;20.30;63.20
53978;DHT22;39886;47.984;-1.586;2023-04-06T18:51:09;20.20;63.20
53978;DHT22;39886;47.984;-1.586;2023-04-06T18:53:35;20.20;63.20
53978;DHT22;39886;47.984;-1.586;2023-04-06T18:56:01;20.20;63.20
53978;DHT22;39886;47.984;-1.586;2023-04-06T18:58:28;20.20;63.20
53978;DHT22;39886;47.984;-1.586;2023-04-06T19:00:54;20.20;63.30
53978;DHT22;39886;47.984;-1.586;2023-04-06T19:03:22;20.20;63.20
53978;DHT22;39886;47.984;-1.586;2023-04-06T19:05:48;20.10;63.20
53978;DHT22;39886;47.984;-1.586;2023-04-06T19:08:14;20.10;63.30
53978;DHT22;39886;47.984;-1.586;2023-04-06T19:10:40;20.10;63.30
53978;DHT22;39886;47.984;-1.586;2023-04-06T19:13:06;20.10;63.30
53978;DHT22;39886;47.984;-1.586;2023-04-06T19:15:31;20.10;63.40
53978;DHT22;39886;47.984;-1.586;2023-04-06T19:17:57;20.00;63.40
53978;DHT22;39886;47.984;-1.586;2023-04-06T19:20:23;20.00;63.40
53978;DHT22;39886;47.984;-1.586;2023-04-06T19:22:49;20.00;63.40
53978;DHT22;39886;47.984;-1.586;2023-04-06T19:25:16;19.90;63.40
53978;DHT22;39886;47.984;-1.586;2023-04-06T19:27:43;19.90;63.40
53978;DHT22;39886;47.984;-1.586;2023-04-06T19:30:10;19.90;63.40
53978;DHT22;39886;47.984;-1.586;2023-04-06T19:32:39;19.90;63.40
53978;DHT22;39886;47.984;-1.586;2023-04-06T19:35:06;19.90;63.40
53978;DHT22;39886;47.984;-1.586;2023-04-06T19:37:33;19.90;63.50
53978;DHT22;39886;47.984;-1.586;2023-04-06T19:39:59;19.90;63.50
53978;DHT22;39886;47.984;-1.586;2023-04-06T19:42:25;19.90;63.50
53978;DHT22;39886;47.984;-1.586;2023-04-06T19:44:51;19.80;63.50
53978;DHT22;39886;47.984;-1.586;2023-04-06T19:47:17;19.80;63.50
53978;DHT22;39886;47.984;-1.586;2023-04-06T19:49:43;19.80;63.50
53978;DHT22;39886;47.984;-1.586;2023-04-06T19:52:10;19.80;63.50
53978;DHT22;39886;47.984;-1.586;2023-04-06T19:54:39;19.80;63.50
53978;DHT22;39886;47.984;-1.586;2023-04-06T19:57:05;19.80;63.50
53978;DHT22;39886;47.984;-1.586;2023-04-06T19:59:31;19.70;63.50
53978;DHT22;39886;47.984;-1.586;2023-04-06T20:01:59;19.70;64.30
53978;DHT22;39886;47.984;-1.586;2023-04-06T20:04:24;19.70;64.20
53978;DHT22;39886;47.984;-1.586;2023-04-06T20:06:50;19.70;63.60
53978;DHT22;39886;47.984;-1.586;2023-04-06T20:09:16;19.70;63.60
53978;DHT22;39886;47.984;-1.586;2023-04-06T20:11:42;19.70;63.60
53978;DHT22;39886;47.984;-1.586;2023-04-06T20:14:08;19.60;63.60
53978;DHT22;39886;47.984;-1.586;2023-04-06T20:16:34;19.60;63.60
53978;DHT22;39886;47.984;-1.586;2023-04-06T20:18:59;19.60;63.70
53978;DHT22;39886;47.984;-1.586;2023-04-06T20:21:26;19.60;63.70
53978;DHT22;39886;47.984;-1.586;2023-04-06T20:23:52;19.60;63.70
53978;DHT22;39886;47.984;-1.586;2023-04-06T20:26:18;19.60;63.70
53978;DHT22;39886;47.984;-1.586;2023-04-06T20:28:44;19.60;63.70
53978;DHT22;39886;47.984;-1.586;2023-04-06T20:31:10;19.60;63.70
53978;DHT22;39886;47.984;-1.586;2023-04-06T20:33:38;19.50;63.70
53978;DHT22;39886;47.984;-1.586;2023-04-06T20:36:04;19.50;63.70
53978;DHT22;39886;47.984;-1.586;2023-04-06T20:38:30;19.50;63.70
53978;DHT22;39886;47.984;-1.586;2023-04-06T20:40:55;19.50;63.80
53978;DHT22;39886;47.984;-1.586;2023-04-06T20:43:26;19.50;63.80
53978;DHT22;39886;47.984;-1.586;2023-04-06T20:45:56;19.50;63.80
53978;DHT22;39886;47.984;-1.586;2023-04-06T20:48:23;19.50;63.80
53978;DHT22;39886;47.984;-1.586;2023-04-06T20:50:50;19.40;63.70
53978;DHT22;39886;47.984;-1.586;2023-04-06T20:53:19;19.40;63.70
53978;DHT22;39886;47.984;-1.586;2023-04-06T20:55:45;19.40;63.60
53978;DHT22;39886;47.984;-1.586;2023-04-06T20:58:11;19.40;63.70
53978;DHT22;39886;47.984;-1.586;2023-04-06T21:00:36;19.40;63.70
53978;DHT22;39886;47.984;-1.586;2023-04-06T21:03:02;19.40;63.70
53978;DHT22;39886;47.984;-1.586;2023-04-06T21:05:28;19.40;63.70
53978;DHT22;39886;47.984;-1.586;2023-04-06T21:07:54;19.40;63.70
53978;DHT22;39886;47.984;-1.586;2023-04-06T21:10:20;19.40;63.70
53978;DHT22;39886;47.984;-1.586;2023-04-06T21:12:49;19.40;63.70
53978;DHT22;39886;47.984;-1.586;2023-04-06T21:15:15;19.30;63.70
53978;DHT22;39886;47.984;-1.586;2023-04-06T21:17:40;19.30;63.70
53978;DHT22;39886;47.984;-1.586;2023-04-06T21:20:07;19.30;63.70
53978;DHT22;39886;47.984;-1.586;2023-04-06T21:22:33;19.30;63.70
53978;DHT22;39886;47.984;-1.586;2023-04-06T21:24:59;19.30;63.70
53978;DHT22;39886;47.984;-1.586;2023-04-06T21:27:25;19.30;63.70
53978;DHT22;39886;47.984;-1.586;2023-04-06T21:29:50;19.20;63.70
53978;DHT22;39886;47.984;-1.586;2023-04-06T21:32:16;19.20;63.70
53978;DHT22;39886;47.984;-1.586;2023-04-06T21:34:42;19.20;63.80
53978;DHT22;39886;47.984;-1.586;2023-04-06T21:37:10;19.20;63.80
53978;DHT22;39886;47.984;-1.586;2023-04-06T21:39:36;19.20;63.80
53978;DHT22;39886;47.984;-1.586;2023-04-06T21:42:03;19.20;63.80
53978;DHT22;39886;47.984;-1.586;2023-04-06T21:44:28;19.20;63.80
53978;DHT22;39886;47.984;-1.586;2023-04-06T21:46:54;19.20;63.90
53978;DHT22;39886;47.984;-1.586;2023-04-06T21:49:20;19.10;63.80
53978;DHT22;39886;47.984;-1.586;2023-04-06T21:51:45;19.10;63.80
53978;DHT22;39886;47.984;-1.586;2023-04-06T21:54:11;19.10;63.80
53978;DHT22;39886;47.984;-1.586;2023-04-06T21:56:37;19.10;63.70
53978;DHT22;39886;47.984;-1.586;2023-04-06T21:59:03;19.10;63.80
53978;DHT22;39886;47.984;-1.586;2023-04-06T22:01:29;19.10;63.90
53978;DHT22;39886;47.984;-1.586;2023-04-06T22:03:55;19.10;63.90
53978;DHT22;39886;47.984;-1.586;2023-04-06T22:06:20;19.00;63.80
53978;DHT22;39886;47.984;-1.586;2023-04-06T22:08:48;19.10;63.90
53978;DHT22;39886;47.984;-1.586;2023-04-06T22:11:14;19.10;63.90
53978;DHT22;39886;47.984;-1.586;2023-04-06T22:13:40;19.00;63.90
53978;DHT22;39886;47.984;-1.586;2023-04-06T22:16:06;19.00;63.90
53978;DHT22;39886;47.984;-1.586;2023-04-06T22:18:32;19.00;64.00
53978;DHT22;39886;47.984;-1.586;2023-04-06T22:20:58;19.00;64.00
53978;DHT22;39886;47.984;-1.586;2023-04-06T22:23:24;19.00;64.00
53978;DHT22;39886;47.984;-1.586;2023-04-06T22:25:50;18.90;64.00
53978;DHT22;39886;47.984;-1.586;2023-04-06T22:28:16;18.90;63.90
53978;DHT22;39886;47.984;-1.586;2023-04-06T22:30:42;18.90;63.90
53978;DHT22;39886;47.984;-1.586;2023-04-06T22:33:08;18.90;64.00
53978;DHT22;39886;47.984;-1.586;2023-04-06T22:35:33;18.90;64.00
53978;DHT22;39886;47.984;-1.586;2023-04-06T22:37:59;18.90;64.00
53978;DHT22;39886;47.984;-1.586;2023-04-06T22:40:26;18.90;64.00
53978;DHT22;39886;47.984;-1.586;2023-04-06T22:42:52;18.90;64.00
53978;DHT22;39886;47.984;-1.586;2023-04-06T22:45:17;18.90;64.00
53978;DHT22;39886;47.984;-1.586;2023-04-06T22:47:43;18.90;64.00
53978;DHT22;39886;47.984;-1.586;2023-04-06T22:50:09;18.90;64.10
53978;DHT22;39886;47.984;-1.586;2023-04-06T22:52:35;18.80;64.10
53978;DHT22;39886;47.984;-1.586;2023-04-06T22:55:00;18.80;64.00
53978;DHT22;39886;47.984;-1.586;2023-04-06T22:57:26;18.80;64.10
53978;DHT22;39886;47.984;-1.586;2023-04-06T22:59:53;18.80;64.00
53978;DHT22;39886;47.984;-1.586;2023-04-06T23:02:19;18.80;64.20
53978;DHT22;39886;47.984;-1.586;2023-04-06T23:04:45;18.80;64.20
53978;DHT22;39886;47.984;-1.586;2023-04-06T23:07:12;18.80;64.20
53978;DHT22;39886;47.984;-1.586;2023-04-06T23:09:40;18.80;64.10
53978;DHT22;39886;47.984;-1.586;2023-04-06T23:12:06;18.80;64.10
53978;DHT22;39886;47.984;-1.586;2023-04-06T23:14:32;18.70;64.00
53978;DHT22;39886;47.984;-1.586;2023-04-06T23:16:58;18.70;64.10
53978;DHT22;39886;47.984;-1.586;2023-04-06T23:19:24;18.70;64.10